Time;durP1;ratioP1;P1;durP2;ratioP2;P2;SDS_P1;SDS_P2;PMS_P1;PMS_P2;Temp;Humidity;BMP_temperature;BMP_pressure;BME280_temperature;BME280_humidity;BME280_pressure;Samples;Min_cycle;Max_cycle;Signal;HPM_P1;HPM_P2
2021/07/23 00:01:11;;;;;;;13.20;7.73;;;15.50;99.90;;;;;;5024288;28;20174;-76
2021/07/23 00:03:39;;;;;;;12.67;7.50;;;15.50;99.90;;;;;;5029553;28;20803;-75
2021/07/23 00:06:05;;;;;;;11.70;6.60;;;15.40;99.90;;;;;;5026838;28;20191;-75
2021/07/23 00:08:31;;;;;;;17.10;7.47;;;15.40;99.90;;;;;;5030027;28;20386;-75
2021/07/23 00:10:57;;;;;;;16.27;6.70;;;15.40;99.90;;;;;;5034612;28;20780;-75
2021/07/23 00:13:23;;;;;;;16.10;6.77;;;15.40;99.90;;;;;;5035600;28;20678;-75
2021/07/23 00:16:03;;;;;;;14.30;7.10;;;15.30;99.90;;;;;;5030699;28;20477;-74
2021/07/23 00:18:33;;;;;;;12.27;7.70;;;15.30;99.90;;;;;;5026894;28;20537;-77
2021/07/23 00:21:09;;;;;;;14.10;7.27;;;15.20;99.90;;;;;;5026525;28;20895;-77
2021/07/23 00:23:51;;;;;;;12.30;7.70;;;15.30;99.90;;;;;;5035623;28;20939;-78
2021/07/23 00:26:19;;;;;;;11.60;6.23;;;;;;;;;;5034901;28;20505;-78
2021/07/23 00:29:21;;;;;;;15.50;7.87;;;15.20;99.90;;;;;;5035764;28;20508;-77
2021/07/23 00:31:57;;;;;;;13.90;7.13;;;;;;;;;;5032132;28;20389;-77
2021/07/23 00:34:27;;;;;;;15.17;7.30;;;15.10;99.90;;;;;;5015650;28;20884;-78
2021/07/23 00:37:03;;;;;;;15.43;7.30;;;15.10;99.90;;;;;;5015935;28;20439;-77
2021/07/23 00:39:29;;;;;;;14.40;7.20;;;15.10;99.90;;;;;;5018516;28;20442;-77
2021/07/23 00:41:54;;;;;;;11.40;7.90;;;15.10;99.90;;;;;;5021525;28;20924;-77
2021/07/23 00:44:27;;;;;;;19.03;7.60;;;15.00;99.90;;;;;;5028262;28;20196;-77
2021/07/23 00:46:55;;;;;;;10.90;6.67;;;15.00;99.90;;;;;;5015188;28;20263;-74
2021/07/23 00:49:21;;;;;;;19.63;7.47;;;15.00;99.90;;;;;;5020571;28;20907;-75
2021/07/23 00:51:48;;;;;;;14.63;8.80;;;14.90;99.90;;;;;;5029919;28;20412;-75
2021/07/23 00:54:16;;;;;;;11.87;6.97;;;14.90;99.90;;;;;;5015431;28;20837;-74
2021/07/23 00:56:46;;;;;;;16.50;8.20;;;14.90;99.90;;;;;;5027449;28;20501;-75
2021/07/23 00:59:13;;;;;;;12.93;7.40;;;14.90;99.90;;;;;;5034388;28;20541;-75
2021/07/23 01:01:40;;;;;;;11.57;7.80;;;14.90;99.90;;;;;;5028372;28;20386;-76
2021/07/23 01:04:06;;;;;;;14.63;7.17;;;14.80;99.90;;;;;;5018528;28;20426;-75
2021/07/23 01:06:35;;;;;;;13.57;6.93;;;14.80;99.90;;;;;;5023254;28;20416;-75
2021/07/23 01:09:09;;;;;;;16.07;7.70;;;14.80;99.90;;;;;;5018242;28;20160;-75
2021/07/23 01:11:37;;;;;;;15.20;8.17;;;14.70;99.90;;;;;;5029692;28;20423;-75
2021/07/23 01:14:04;;;;;;;21.13;7.40;;;14.70;99.90;;;;;;5025625;28;20484;-74
2021/07/23 01:16:33;;;;;;;13.10;7.70;;;14.70;99.90;;;;;;5032644;28;20429;-74
2021/07/23 01:19:00;;;;;;;11.20;6.97;;;14.70;99.90;;;;;;5033129;28;20423;-77
2021/07/23 01:21:43;;;;;;;13.77;7.43;;;14.60;99.90;;;;;;5032783;28;20955;-77
2021/07/23 01:24:14;;;;;;;13.20;7.47;;;14.60;99.90;;;;;;5020448;28;20439;-77
2021/07/23 01:26:53;;;;;;;13.57;7.90;;;14.60;99.90;;;;;;5014662;28;20379;-77
2021/07/23 01:29:27;;;;;;;13.03;7.83;;;14.60;99.90;;;;;;5017139;28;20398;-77
2021/07/23 01:31:53;;;;;;;12.37;7.07;;;14.50;99.90;;;;;;5033471;28;20390;-77
2021/07/23 01:34:21;;;;;;;14.03;8.00;;;14.50;99.90;;;;;;5017264;28;20416;-77
2021/07/23 01:36:57;;;;;;;13.10;7.97;;;14.50;99.90;;;;;;5015442;28;20189;-77
2021/07/23 01:39:24;;;;;;;12.07;7.73;;;14.50;99.90;;;;;;5030940;28;20441;-77
2021/07/23 01:42:09;;;;;;;14.17;7.77;;;14.50;99.90;;;;;;5026472;28;20400;-77
2021/07/23 01:44:35;;;;;;;17.73;7.50;;;14.50;99.90;;;;;;5029578;28;20461;-77
2021/07/23 01:47:03;;;;;;;14.10;8.47;;;14.50;99.90;;;;;;5018539;28;20422;-77
2021/07/23 01:49:29;;;;;;;23.20;7.97;;;14.40;99.90;;;;;;5022982;28;20184;-78
2021/07/23 01:51:57;;;;;;;15.17;7.97;;;14.40;99.90;;;;;;5020425;28;20491;-77
2021/07/23 01:54:27;;;;;;;14.00;8.50;;;14.40;99.90;;;;;;5024638;28;20202;-77
2021/07/23 01:56:57;;;;;;;23.43;8.30;;;14.40;99.90;;;;;;5018443;28;20527;-77
2021/07/23 01:59:23;;;;;;;12.10;8.00;;;14.40;99.90;;;;;;5014210;28;20485;-77
2021/07/23 02:01:51;;;;;;;18.37;8.53;;;14.40;99.90;;;;;;5027877;28;20506;-77
2021/07/23 02:04:21;;;;;;;12.80;7.90;;;14.40;99.90;;;;;;5033089;28;20676;-75
2021/07/23 02:06:51;;;;;;;12.17;7.33;;;14.40;99.90;;;;;;5029353;28;20881;-75
2021/07/23 02:09:17;;;;;;;15.30;7.73;;;14.40;99.90;;;;;;5033624;28;20366;-75
2021/07/23 02:11:43;;;;;;;14.87;7.70;;;;;;;;;;5032492;28;20407;-75
2021/07/23 02:14:11;;;;;;;13.93;7.90;;;14.40;99.90;;;;;;5028370;28;20239;-75
2021/07/23 02:16:37;;;;;;;21.00;8.50;;;14.40;99.90;;;;;;5026796;28;20421;-75
2021/07/23 02:19:04;;;;;;;14.70;7.73;;;14.40;99.90;;;;;;5028687;28;20870;-75
2021/07/23 02:21:30;;;;;;;15.50;8.23;;;14.40;99.90;;;;;;5026331;28;20390;-75
2021/07/23 02:23:56;;;;;;;21.83;7.93;;;14.40;99.90;;;;;;5030223;28;20528;-75
2021/07/23 02:26:39;;;;;;;11.70;7.67;;;14.40;99.90;;;;;;5033366;28;20477;-76
2021/07/23 02:29:05;;;;;;;12.30;6.93;;;14.30;99.90;;;;;;5030460;28;20473;-75
2021/07/23 02:31:30;;;;;;;12.93;7.57;;;14.30;99.90;;;;;;5024153;28;20390;-75
2021/07/23 02:34:03;;;;;;;19.90;8.30;;;14.30;99.90;;;;;;5023911;28;20554;-77
2021/07/23 02:36:45;;;;;;;15.40;8.30;;;14.30;99.90;;;;;;5016568;28;20195;-77
2021/07/23 02:39:24;;;;;;;15.93;8.53;;;14.20;99.90;;;;;;5024410;28;20451;-77
2021/07/23 02:42:09;;;;;;;19.57;7.90;;;14.20;99.90;;;;;;5013991;28;20512;-78
2021/07/23 02:44:39;;;;;;;15.17;8.00;;;14.20;99.90;;;;;;5030493;28;21075;-77
2021/07/23 02:47:09;;;;;;;14.80;7.97;;;14.20;99.90;;;;;;5031469;28;20854;-77
2021/07/23 02:49:35;;;;;;;15.90;7.87;;;14.20;99.90;;;;;;5022469;28;20761;-78
2021/07/23 02:52:03;;;;;;;15.97;8.20;;;14.20;99.90;;;;;;5030618;28;20404;-77
2021/07/23 02:54:33;;;;;;;16.17;7.93;;;14.20;99.90;;;;;;5015068;28;20176;-77
2021/07/23 02:57:09;;;;;;;11.80;7.80;;;14.20;99.90;;;;;;5025916;28;20908;-77
2021/07/23 02:59:51;;;;;;;13.23;7.47;;;14.10;99.90;;;;;;5018679;28;20419;-77
2021/07/23 03:02:17;;;;;;;17.13;8.07;;;14.20;99.90;;;;;;5015808;28;20477;-78
2021/07/23 03:04:43;;;;;;;13.60;7.53;;;14.20;99.90;;;;;;5027532;28;20509;-75
2021/07/23 03:07:15;;;;;;;15.47;8.07;;;14.20;99.90;;;;;;5029284;28;20182;-75
2021/07/23 03:09:41;;;;;;;14.80;7.83;;;14.20;99.90;;;;;;5032355;28;20617;-75
2021/07/23 03:12:09;;;;;;;12.93;7.20;;;14.10;99.90;;;;;;5031799;28;20378;-74
2021/07/23 03:14:46;;;;;;;12.87;7.70;;;14.10;99.90;;;;;;5016357;28;20181;-75
2021/07/23 03:17:11;;;;;;;12.00;7.37;;;14.20;99.90;;;;;;5016556;28;20476;-75
2021/07/23 03:19:51;;;;;;;16.93;8.33;;;14.10;99.90;;;;;;5029137;28;20509;-78
2021/07/23 03:22:21;;;;;;;14.03;7.50;;;14.10;99.90;;;;;;5033186;28;20219;-77
2021/07/23 03:25:04;;;;;;;23.83;8.73;;;14.10;99.90;;;;;;5014572;28;20459;-77
2021/07/23 03:27:33;;;;;;;16.43;8.27;;;14.10;99.90;;;;;;5018396;28;20445;-77
2021/07/23 03:30:05;;;;;;;16.80;7.97;;;14.00;99.90;;;;;;5030897;28;20411;-78
2021/07/23 03:32:33;;;;;;;12.80;7.63;;;14.00;99.90;;;;;;5032914;28;20418;-77
2021/07/23 03:35:04;;;;;;;15.57;7.63;;;14.00;99.90;;;;;;5017367;28;20401;-75
2021/07/23 03:37:29;;;;;;;13.93;8.00;;;14.00;99.90;;;;;;5023635;28;20431;-75
2021/07/23 03:39:55;;;;;;;21.40;8.40;;;;;;;;;;5031991;28;20457;-75
2021/07/23 03:42:21;;;;;;;23.47;9.07;;;13.90;99.90;;;;;;5036343;28;20255;-75
2021/07/23 03:44:51;;;;;;;17.80;8.00;;;13.90;99.90;;;;;;5018634;28;20794;-74
2021/07/23 03:47:39;;;;;;;24.13;8.60;;;13.90;99.90;;;;;;5017451;28;20250;-75
2021/07/23 03:50:05;;;;;;;15.87;8.37;;;13.90;99.90;;;;;;5029016;28;20447;-77
2021/07/23 03:52:51;;;;;;;14.30;7.90;;;14.00;99.90;;;;;;5022093;28;20405;-77
2021/07/23 03:55:33;;;;;;;13.03;8.10;;;14.00;99.90;;;;;;5016529;28;20409;-82
2021/07/23 03:58:23;;;;;;;14.40;8.27;;;14.00;99.90;;;;;;5016046;28;20436;-82
2021/07/23 04:01:27;;;;;;;15.03;8.53;;;13.90;99.90;;;;;;5015087;28;20442;-81
2021/07/23 04:04:03;;;;;;;17.90;7.47;;;13.90;99.90;;;;;;5026494;28;20436;-81
2021/07/23 04:07:06;;;;;;;14.87;7.30;;;13.90;99.90;;;;;;5016627;28;20433;-81
2021/07/23 04:09:51;;;;;;;14.30;7.47;;;13.90;99.90;;;;;;5027185;28;20806;-82
2021/07/23 04:15:38;;;;;;;12.80;7.03;;;13.90;99.90;;;;;;5015659;28;20418;-82
2021/07/23 04:18:16;;;;;;;14.10;7.60;;;14.00;99.90;;;;;;5030765;28;20507;-82
2021/07/23 04:20:42;;;;;;;13.07;6.83;;;14.10;99.90;;;;;;5034357;28;20617;-80
2021/07/23 04:26:29;;;;;;;13.40;7.90;;;14.10;99.90;;;;;;5030771;28;20438;-81
2021/07/23 04:28:56;;;;;;;14.70;8.00;;;;;;;;;;5023090;28;20415;-80
2021/07/23 04:31:45;;;;;;;23.20;9.00;;;14.20;99.90;;;;;;5031675;28;20177;-80
2021/07/23 04:34:33;;;;;;;14.77;8.80;;;14.20;99.90;;;;;;5049921;28;20423;-81
2021/07/23 04:37:00;;;;;;;18.97;9.50;;;14.20;99.90;;;;;;5035079;28;20581;-79
2021/07/23 04:39:51;;;;;;;20.80;9.23;;;14.30;99.90;;;;;;5027451;28;20550;-80
2021/07/23 04:42:34;;;;;;;14.70;7.50;;;14.40;99.90;;;;;;5016790;28;20416;-80
2021/07/23 04:45:40;;;;;;;13.60;9.00;;;14.50;99.90;;;;;;5018028;28;20455;-80
2021/07/23 04:48:15;;;;;;;15.77;8.40;;;14.50;99.90;;;;;;5031125;28;20601;-79
2021/07/23 04:51:04;;;;;;;15.07;8.30;;;14.60;99.90;;;;;;5028392;28;20410;-79
2021/07/23 04:54:09;;;;;;;14.53;8.20;;;14.60;99.90;;;;;;5034597;28;20426;-79
2021/07/23 04:56:48;;;;;;;15.23;7.60;;;14.70;99.90;;;;;;5034858;28;20427;-79
2021/07/23 04:59:22;;;;;;;14.17;8.17;;;14.80;99.90;;;;;;5033593;28;20441;-79
2021/07/23 05:01:52;;;;;;;12.87;8.07;;;14.90;99.90;;;;;;5029756;28;20486;-79
2021/07/23 05:05:03;;;;;;;15.37;8.23;;;15.00;99.90;;;;;;5027833;28;20451;-83
2021/07/23 05:07:51;;;;;;;14.63;7.57;;;15.10;99.90;;;;;;5033624;28;20404;-81
2021/07/23 05:10:17;;;;;;;13.77;7.67;;;;;;;;;;5034819;28;20406;-82
2021/07/23 05:16:06;;;;;;;19.63;8.67;;;;;;;;;;5014268;28;20445;-81
2021/07/23 05:18:51;;;;;;;15.77;8.37;;;15.40;99.90;;;;;;5026956;28;20496;-82
2021/07/23 05:21:35;;;;;;;23.33;9.00;;;15.50;99.90;;;;;;5034743;28;20390;-82
2021/07/23 05:24:04;;;;;;;15.90;7.67;;;15.60;99.90;;;;;;5022014;28;20869;-83
2021/07/23 05:33:14;;;;;;;12.40;7.50;;;15.90;99.90;;;;;;5028611;28;20916;-83
2021/07/23 05:36:26;;;;;;;12.27;6.90;;;16.10;99.90;;;;;;5028402;28;20426;-82
2021/07/23 05:39:03;;;;;;;11.23;6.87;;;16.20;99.90;;;;;;5018535;28;20195;-82
2021/07/23 05:41:30;;;;;;;15.77;7.80;;;16.40;99.90;;;;;;5032983;28;20405;-82
2021/07/23 05:44:33;;;;;;;15.67;7.50;;;16.50;99.90;;;;;;5027307;28;20472;-81
2021/07/23 05:47:15;;;;;;;12.40;6.83;;;16.70;99.90;;;;;;5033968;28;20370;-81
2021/07/23 05:49:41;;;;;;;15.23;8.20;;;16.80;99.90;;;;;;5024085;28;20424;-81
2021/07/23 05:52:21;;;;;;;15.87;7.67;;;16.90;99.90;;;;;;5029026;28;20523;-82
2021/07/23 05:55:27;;;;;;;13.97;6.83;;;16.90;99.90;;;;;;5029941;28;20718;-82
2021/07/23 06:01:33;;;;;;;14.97;7.60;;;17.40;99.90;;;;;;5027639;28;20448;-82
2021/07/23 06:04:09;;;;;;;23.30;8.57;;;17.50;99.90;;;;;;5032951;28;20455;-82
2021/07/23 06:06:35;;;;;;;16.77;8.80;;;17.70;99.90;;;;;;5020778;28;20953;-82
2021/07/23 06:09:27;;;;;;;16.83;8.40;;;17.80;99.90;;;;;;5013977;28;20496;-82
2021/07/23 06:11:57;;;;;;;11.63;7.33;;;17.90;99.90;;;;;;5019966;28;20187;-82
2021/07/23 06:14:34;;;;;;;16.63;8.77;;;18.10;99.90;;;;;;5029043;28;20796;-82
2021/07/23 06:17:04;;;;;;;15.57;8.87;;;18.20;99.90;;;;;;5027314;28;20420;-82
2021/07/23 06:19:34;;;;;;;12.87;8.10;;;18.40;99.90;;;;;;5014185;28;20418;-83
2021/07/23 06:22:10;;;;;;;13.60;7.67;;;18.40;99.90;;;;;;5021952;28;20504;-82
2021/07/23 06:24:54;;;;;;;17.13;7.77;;;18.60;99.90;;;;;;5026024;28;20453;-82
2021/07/23 06:27:20;;;;;;;23.23;8.80;;;18.80;99.90;;;;;;5014439;28;20454;-82
2021/07/23 06:29:48;;;;;;;17.50;8.10;;;18.90;99.90;;;;;;5027834;28;20435;-82
2021/07/23 06:32:14;;;;;;;16.90;9.07;;;18.90;99.90;;;;;;5020129;28;20257;-82
2021/07/23 06:34:46;;;;;;;17.97;8.67;;;19.10;99.90;;;;;;5027104;28;20522;-83
2021/07/23 06:37:20;;;;;;;17.90;7.70;;;19.10;99.90;;;;;;5023270;28;20535;-83
2021/07/23 06:43:45;;;;;;;21.60;7.93;;;19.40;99.90;;;;;;5028065;28;20496;-83
2021/07/23 06:46:11;;;;;;;21.87;8.43;;;19.70;99.90;;;;;;5019434;28;20426;-79
2021/07/23 06:48:36;;;;;;;17.40;8.10;;;19.80;99.90;;;;;;5033063;28;20452;-79
2021/07/23 06:51:05;;;;;;;14.03;8.13;;;19.90;99.90;;;;;;5028210;28;20679;-75
2021/07/23 06:53:35;;;;;;;14.23;7.97;;;19.90;99.90;;;;;;5021033;28;20263;-75
2021/07/23 06:56:05;;;;;;;18.20;8.03;;;20.10;99.90;;;;;;5022785;28;21005;-75
2021/07/23 06:58:34;;;;;;;14.13;7.37;;;20.20;99.90;;;;;;5025650;28;20483;-75
2021/07/23 07:01:07;;;;;;;18.77;8.20;;;20.20;99.90;;;;;;5028531;28;20969;-75
2021/07/23 07:03:33;;;;;;;17.73;8.00;;;20.40;99.90;;;;;;5014738;28;20946;-78
2021/07/23 07:05:59;;;;;;;12.60;7.40;;;20.50;99.90;;;;;;5025551;28;20499;-78
2021/07/23 07:08:25;;;;;;;17.70;7.93;;;20.50;99.90;;;;;;5033708;28;20485;-78
2021/07/23 07:10:50;;;;;;;12.40;7.77;;;20.70;99.90;;;;;;5025203;28;20178;-78
2021/07/23 07:13:16;;;;;;;22.57;8.67;;;20.80;99.90;;;;;;5017340;28;20468;-78
2021/07/23 07:15:42;;;;;;;15.60;7.03;;;20.90;99.90;;;;;;5019804;28;20172;-79
2021/07/23 07:18:08;;;;;;;12.90;7.53;;;21.00;99.90;;;;;;5026651;28;20179;-78
2021/07/23 07:20:36;;;;;;;14.10;7.87;;;21.10;99.90;;;;;;5030490;28;20166;-78
2021/07/23 07:23:02;;;;;;;11.97;7.40;;;21.20;99.90;;;;;;5022207;28;20170;-79
2021/07/23 07:25:31;;;;;;;12.80;6.77;;;21.30;99.90;;;;;;5024971;28;20871;-78
2021/07/23 07:27:57;;;;;;;17.63;6.97;;;21.40;99.90;;;;;;5031332;28;20178;-78
2021/07/23 07:30:23;;;;;;;11.60;7.03;;;21.50;99.90;;;;;;5029844;28;20540;-78
2021/07/23 07:32:51;;;;;;;21.57;7.60;;;21.60;99.90;;;;;;5027672;28;21041;-79
2021/07/23 07:35:17;;;;;;;17.07;7.33;;;21.70;99.90;;;;;;5025340;28;20841;-78
2021/07/23 07:37:43;;;;;;;16.07;8.00;;;21.80;99.90;;;;;;5022802;28;20531;-75
2021/07/23 07:40:09;;;;;;;20.80;7.33;;;21.90;99.90;;;;;;5026749;28;20196;-75
2021/07/23 07:42:35;;;;;;;13.03;7.20;;;21.90;99.90;;;;;;5027777;28;20197;-75
2021/07/23 07:45:02;;;;;;;18.90;7.40;;;22.00;99.90;;;;;;5027151;28;20441;-75
2021/07/23 07:47:28;;;;;;;14.57;7.13;;;22.70;99.90;;;;;;5033927;28;20179;-75
2021/07/23 07:49:53;;;;;;;26.67;8.50;;;22.30;99.90;;;;;;5025311;28;20435;-75
2021/07/23 07:52:19;;;;;;;18.70;8.07;;;22.40;99.90;;;;;;5027425;28;20544;-79
2021/07/23 07:54:46;;;;;;;16.20;7.13;;;22.50;99.90;;;;;;5025346;28;20233;-78
2021/07/23 07:57:12;;;;;;;13.27;6.17;;;22.70;99.90;;;;;;5031944;28;20197;-78
2021/07/23 07:59:39;;;;;;;16.13;7.70;;;;;;;;;;5035129;28;20483;-78
2021/07/23 08:02:12;;;;;;;22.77;7.60;;;22.80;99.90;;;;;;5034902;28;20163;-79
2021/07/23 08:04:38;;;;;;;14.10;7.10;;;22.90;99.90;;;;;;5034337;28;20497;-78
2021/07/23 08:07:12;;;;;;;13.47;7.23;;;23.00;99.90;;;;;;5035377;28;20450;-75
2021/07/23 08:09:58;;;;;;;13.10;6.50;;;23.20;99.90;;;;;;5020310;28;20956;-75
2021/07/23 08:12:25;;;;;;;17.27;6.50;;;23.20;99.90;;;;;;5015015;28;20451;-75
2021/07/23 08:14:51;;;;;;;10.60;6.67;;;23.30;99.90;;;;;;5026198;28;20413;-75
2021/07/23 08:17:17;;;;;;;13.70;6.30;;;23.40;99.90;;;;;;5034102;28;20439;-75
2021/07/23 08:19:43;;;;;;;13.20;6.17;;;23.50;99.90;;;;;;5021974;28;20220;-75
2021/07/23 08:22:09;;;;;;;13.60;7.13;;;23.50;99.90;;;;;;5019991;28;20454;-75
2021/07/23 08:24:36;;;;;;;9.60;6.13;;;23.50;99.90;;;;;;5027408;28;20473;-78
2021/07/23 08:27:02;;;;;;;13.00;6.20;;;23.40;99.90;;;;;;5025784;28;20412;-78
2021/07/23 08:29:27;;;;;;;16.33;6.00;;;23.60;99.90;;;;;;5034652;28;20391;-74
2021/07/23 08:31:53;;;;;;;14.60;6.63;;;23.70;99.90;;;;;;5025390;28;20899;-75
2021/07/23 08:34:19;;;;;;;10.63;5.60;;;23.80;99.90;;;;;;5014711;28;20159;-75
2021/07/23 08:36:44;;;;;;;12.83;7.03;;;23.90;99.90;;;;;;5018416;28;20178;-75
2021/07/23 08:39:10;;;;;;;14.07;6.83;;;23.90;99.90;;;;;;5019113;28;20182;-75
2021/07/23 08:41:36;;;;;;;9.47;5.77;;;24.20;99.90;;;;;;5015847;28;20270;-75
2021/07/23 08:44:02;;;;;;;11.80;7.13;;;24.30;99.90;;;;;;5028814;28;20205;-75
2021/07/23 08:46:29;;;;;;;12.20;6.53;;;24.30;99.90;;;;;;5028383;28;20946;-75
2021/07/23 08:48:57;;;;;;;16.17;5.60;;;24.30;99.90;;;;;;5021287;28;20427;-75
2021/07/23 08:51:23;;;;;;;11.00;6.03;;;;;;;;;;5033969;28;20421;-78
2021/07/23 08:53:48;;;;;;;8.83;5.93;;;24.50;99.90;;;;;;5032238;28;20450;-75
2021/07/23 08:56:14;;;;;;;15.00;6.27;;;24.50;99.90;;;;;;5033987;28;20449;-75
2021/07/23 08:58:46;;;;;;;13.97;5.80;;;24.60;99.90;;;;;;5025432;28;20258;-75
2021/07/23 09:01:12;;;;;;;13.83;6.13;;;;;;;;;;5021971;28;20188;-79
2021/07/23 09:03:38;;;;;;;10.73;6.17;;;24.80;99.90;;;;;;5031824;28;20461;-75
2021/07/23 09:06:22;;;;;;;15.10;6.17;;;24.90;99.90;;;;;;5029528;28;20804;-75
2021/07/23 09:08:50;;;;;;;11.80;6.63;;;24.90;99.90;;;;;;5033044;28;20184;-79
2021/07/23 09:11:23;;;;;;;11.37;6.90;;;25.10;99.90;;;;;;5033982;28;20394;-79
2021/07/23 09:13:49;;;;;;;20.17;6.33;;;;;;;;;;5029742;28;20407;-79
2021/07/23 09:16:26;;;;;;;14.30;6.80;;;25.40;99.90;;;;;;5033583;28;20509;-79
2021/07/23 09:19:10;;;;;;;11.33;5.73;;;25.50;99.90;;;;;;5024630;28;20466;-79
2021/07/23 09:21:37;;;;;;;9.07;5.87;;;25.50;99.90;;;;;;5015138;28;20577;-72
2021/07/23 09:24:05;;;;;;;14.13;6.90;;;25.40;99.90;;;;;;5019427;28;20549;-72
2021/07/23 09:26:44;;;;;;;12.37;6.80;;;25.60;99.90;;;;;;5021340;28;20433;-72
2021/07/23 09:29:11;;;;;;;13.80;6.23;;;25.70;99.90;;;;;;5025684;28;20457;-78
2021/07/23 09:31:37;;;;;;;8.77;5.57;;;25.80;99.90;;;;;;5021731;28;20521;-79
2021/07/23 09:34:04;;;;;;;10.43;6.23;;;25.80;99.90;;;;;;5027237;28;20448;-78
2021/07/23 09:36:32;;;;;;;13.63;6.37;;;26.10;99.90;;;;;;5025113;28;20878;-78
2021/07/23 09:39:06;;;;;;;15.20;6.13;;;26.20;99.90;;;;;;5028626;28;20422;-76
2021/07/23 09:41:34;;;;;;;11.17;7.03;;;26.20;99.90;;;;;;5022369;28;20454;-75
2021/07/23 09:44:05;;;;;;;9.50;6.53;;;26.20;99.90;;;;;;5025568;28;21073;-78
2021/07/23 09:46:35;;;;;;;10.60;5.90;;;26.30;99.90;;;;;;5018587;28;20457;-76
2021/07/23 09:49:22;;;;;;;9.83;5.87;;;26.30;99.90;;;;;;5013595;28;20435;-76
2021/07/23 09:51:52;;;;;;;11.93;6.80;;;26.50;99.90;;;;;;5021990;28;20462;-76
2021/07/23 09:54:19;;;;;;;10.73;6.50;;;26.50;99.90;;;;;;5032180;28;20430;-78
2021/07/23 09:56:49;;;;;;;9.27;6.37;;;26.70;99.90;;;;;;5031169;28;20938;-78
2021/07/23 09:59:39;;;;;;;10.80;6.20;;;26.70;99.90;;;;;;5024922;28;20432;-78
2021/07/23 10:02:15;;;;;;;11.60;6.97;;;26.70;99.90;;;;;;4928553;29;20540;-78
2021/07/23 10:05:12;;;;;;;19.13;7.83;;;26.60;99.90;;;;;;4922245;29;20471;-80
2021/07/23 10:07:43;;;;;;;10.83;6.53;;;26.70;99.90;;;;;;4894170;29;20450;-75
2021/07/23 10:10:13;;;;;;;9.30;6.80;;;26.70;99.90;;;;;;4888652;29;20445;-76
2021/07/23 10:12:43;;;;;;;11.30;6.53;;;26.90;99.90;;;;;;4897394;29;20510;-75
2021/07/23 10:15:11;;;;;;;14.10;6.60;;;26.90;99.90;;;;;;4895705;29;20489;-75
2021/07/23 10:17:37;;;;;;;19.37;8.40;;;27.00;99.90;;;;;;4898952;29;20450;-75
2021/07/23 10:20:04;;;;;;;10.43;6.50;;;27.10;99.90;;;;;;4906642;29;20436;-75
2021/07/23 10:22:30;;;;;;;17.93;7.63;;;27.10;99.90;;;;;;4898908;29;20481;-78
2021/07/23 10:24:56;;;;;;;14.90;9.77;;;27.20;99.90;;;;;;4898722;29;20484;-79
2021/07/23 10:27:24;;;;;;;13.73;7.67;;;27.50;99.90;;;;;;4895406;29;20883;-79
2021/07/23 10:29:51;;;;;;;9.30;7.20;;;;;;;;;;4905376;29;20490;-77
2021/07/23 10:32:24;;;;;;;11.90;7.03;;;27.60;99.90;;;;;;4900930;29;20449;-77
2021/07/23 10:34:53;;;;;;;15.17;7.40;;;27.70;99.90;;;;;;4901855;29;20959;-77
2021/07/23 10:37:30;;;;;;;13.40;7.93;;;27.80;99.90;;;;;;4899063;29;20839;-77
2021/07/23 10:40:16;;;;;;;14.40;6.80;;;27.80;99.90;;;;;;4993580;28;20444;-77
2021/07/23 10:42:57;;;;;;;17.97;7.73;;;28.00;99.90;;;;;;5012818;28;20449;-77
2021/07/23 10:45:40;;;;;;;11.30;7.63;;;27.80;99.90;;;;;;5017618;28;20464;-77
2021/07/23 10:48:29;;;;;;;25.83;8.07;;;27.80;99.90;;;;;;5033090;28;20424;-78
2021/07/23 10:51:03;;;;;;;12.60;7.27;;;27.80;99.90;;;;;;5029882;28;20457;-78
2021/07/23 10:53:31;;;;;;;14.00;7.53;;;27.90;99.90;;;;;;5027396;28;20875;-77
2021/07/23 10:55:57;;;;;;;9.50;6.50;;;28.00;99.90;;;;;;5034977;28;20857;-78
2021/07/23 10:58:23;;;;;;;14.00;7.60;;;;;;;;;;5018847;28;20464;-77
2021/07/23 11:00:52;;;;;;;10.43;7.50;;;28.20;99.90;;;;;;5031348;28;20196;-78
2021/07/23 11:03:36;;;;;;;11.30;7.30;;;28.20;99.90;;;;;;5035616;28;20429;-79
2021/07/23 11:06:13;;;;;;;11.27;6.90;;;28.50;99.90;;;;;;5032899;28;20796;-78
2021/07/23 11:08:54;;;;;;;15.30;7.67;;;28.40;99.90;;;;;;5019559;28;20424;-81
2021/07/23 11:11:24;;;;;;;11.90;7.70;;;28.70;99.90;;;;;;5035063;28;20453;-79
2021/07/23 11:13:50;;;;;;;9.80;7.97;;;;;;;;;;5031579;28;20426;-78
2021/07/23 11:16:17;;;;;;;14.87;8.40;;;28.80;99.90;;;;;;5018080;28;20515;-79
2021/07/23 11:18:57;;;;;;;10.60;8.07;;;28.90;99.90;;;;;;5023284;28;20420;-78
2021/07/23 11:21:32;;;;;;;12.57;7.27;;;28.90;99.90;;;;;;5016071;28;20403;-79
2021/07/23 11:23:58;;;;;;;13.40;7.63;;;29.00;99.90;;;;;;5034294;28;20451;-79
2021/07/23 11:26:25;;;;;;;13.30;7.23;;;29.20;99.90;;;;;;5033713;28;20427;-79
2021/07/23 11:28:58;;;;;;;11.20;7.03;;;29.40;99.90;;;;;;5032968;28;20702;-84
2021/07/23 11:31:32;;;;;;;12.30;7.93;;;29.40;99.90;;;;;;5035775;28;20769;-80
2021/07/23 11:34:27;;;;;;;9.47;7.27;;;29.50;99.90;;;;;;5032792;28;20453;-79
2021/07/23 11:37:30;;;;;;;11.30;7.23;;;29.60;99.90;;;;;;5035450;28;20448;-79
2021/07/23 11:40:11;;;;;;;12.00;8.10;;;29.60;99.90;;;;;;4981189;28;20442;-74
2021/07/23 11:42:41;;;;;;;13.90;7.77;;;29.60;99.90;;;;;;4993280;28;20470;-74
2021/07/23 11:45:13;;;;;;;12.30;7.33;;;29.70;99.90;;;;;;4994400;28;20460;-74
2021/07/23 11:47:40;;;;;;;12.37;7.40;;;29.80;99.90;;;;;;4993918;28;20421;-74
2021/07/23 11:50:12;;;;;;;10.83;7.27;;;29.80;99.90;;;;;;4993657;28;20404;-75
2021/07/23 11:52:38;;;;;;;11.20;7.00;;;29.70;99.90;;;;;;4989761;28;20435;-75
2021/07/23 11:55:06;;;;;;;10.77;7.50;;;29.60;99.90;;;;;;4980088;28;20462;-79
2021/07/23 11:57:46;;;;;;;21.83;7.50;;;29.70;99.90;;;;;;4975339;28;20433;-79
2021/07/23 12:00:22;;;;;;;14.03;7.80;;;29.70;99.90;;;;;;4989275;28;20451;-79
2021/07/23 12:02:50;;;;;;;9.60;7.13;;;29.50;99.70;;;;;;4990931;28;20455;-79
2021/07/23 12:05:17;;;;;;;16.67;7.63;;;29.50;99.90;;;;;;4992844;28;20460;-79
2021/07/23 12:07:45;;;;;;;10.20;7.80;;;29.70;99.90;;;;;;4982945;28;20432;-78
2021/07/23 12:10:16;;;;;;;15.13;8.43;;;29.80;99.90;;;;;;4978081;28;20422;-79
2021/07/23 12:12:42;;;;;;;10.63;7.47;;;30.10;97.60;;;;;;4975634;28;20445;-80
2021/07/23 12:15:10;;;;;;;9.43;7.50;;;30.20;97.70;;;;;;5029375;28;20451;-79
2021/07/23 12:17:41;;;;;;;17.63;7.87;;;30.40;97.60;;;;;;5025869;28;20791;-80
2021/07/23 12:20:07;;;;;;;12.53;7.97;;;30.60;96.20;;;;;;5021845;28;20424;-79
2021/07/23 12:22:34;;;;;;;12.30;8.10;;;30.90;96.10;;;;;;5031783;28;20927;-79
2021/07/23 12:25:17;;;;;;;12.20;7.00;;;31.00;96.10;;;;;;5028863;28;20454;-79
2021/07/23 12:28:17;;;;;;;11.17;7.23;;;31.20;96.20;;;;;;5033274;28;20415;-79
2021/07/23 12:30:44;;;;;;;10.70;7.67;;;31.20;95.10;;;;;;5033389;28;20494;-79
2021/07/23 12:33:25;;;;;;;10.60;7.43;;;31.00;95.60;;;;;;5033346;28;20392;-78
2021/07/23 12:36:01;;;;;;;12.73;8.00;;;31.00;96.70;;;;;;5019781;28;20427;-79
2021/07/23 12:38:31;;;;;;;17.10;7.10;;;31.20;95.70;;;;;;5020030;28;20435;-78
2021/07/23 12:40:59;;;;;;;15.33;8.30;;;31.30;92.90;;;;;;5028209;28;20490;-79
2021/07/23 12:43:26;;;;;;;11.70;7.00;;;31.50;93.60;;;;;;5030194;28;20502;-79
2021/07/23 12:46:28;;;;;;;9.87;6.97;;;31.50;94.50;;;;;;5015242;28;20392;-79
2021/07/23 12:48:54;;;;;;;9.57;7.83;;;31.70;93.40;;;;;;5032653;28;20422;-79
2021/07/23 12:51:24;;;;;;;12.53;7.60;;;31.50;93.40;;;;;;5020943;28;20411;-79
2021/07/23 12:53:57;;;;;;;20.30;8.50;;;31.60;95.00;;;;;;5018592;28;20174;-75
2021/07/23 12:56:30;;;;;;;12.43;7.97;;;31.60;94.30;;;;;;5030579;28;20426;-74
2021/07/23 12:58:56;;;;;;;8.40;7.03;;;31.60;94.80;;;;;;5034265;28;20474;-74
2021/07/23 13:01:22;;;;;;;11.03;7.43;;;31.70;92.70;;;;;;5018464;28;20416;-74
2021/07/23 13:03:49;;;;;;;11.33;7.93;;;31.80;92.10;;;;;;5018569;28;20801;-74
2021/07/23 13:06:21;;;;;;;17.50;8.10;;;31.70;90.90;;;;;;5029860;28;20427;-74
2021/07/23 13:08:47;;;;;;;18.83;8.47;;;31.80;89.80;;;;;;5023650;28;20498;-74
2021/07/23 13:11:15;;;;;;;9.77;7.80;;;31.70;93.40;;;;;;5029646;28;20477;-75
2021/07/23 13:13:42;;;;;;;9.60;7.67;;;31.80;92.60;;;;;;5019152;28;20939;-74
2021/07/23 13:16:11;;;;;;;9.17;7.30;;;31.90;92.80;;;;;;5021915;28;20426;-74
2021/07/23 13:18:38;;;;;;;10.80;8.23;;;31.90;89.50;;;;;;5022400;28;20428;-74
2021/07/23 13:21:04;;;;;;;9.90;7.30;;;32.10;90.00;;;;;;5021119;28;20451;-74
2021/07/23 13:23:31;;;;;;;9.40;7.67;;;32.00;92.30;;;;;;5013055;28;20412;-74
2021/07/23 13:26:04;;;;;;;10.10;7.83;;;32.30;90.60;;;;;;5014831;28;20400;-79
2021/07/23 13:28:45;;;;;;;11.07;7.27;;;32.30;88.40;;;;;;5025562;28;20418;-79
2021/07/23 13:31:15;;;;;;;16.63;7.60;;;32.30;90.20;;;;;;5020065;28;20477;-79
2021/07/23 13:33:57;;;;;;;9.43;7.77;;;32.30;88.60;;;;;;5016344;28;20434;-78